createdAt,value
2019-05-29T00:00:13.339Z,0
2019-05-29T00:01:18.227Z,0
2019-05-29T00:02:13.115Z,0
2019-05-29T00:03:13.142Z,0
2019-05-29T00:04:13.172Z,0
2019-05-29T00:05:13.140Z,0
2019-05-29T00:06:13.178Z,0
2019-05-29T00:07:13.179Z,0
2019-05-29T00:08:13.241Z,0
2019-05-29T00:09:13.204Z,0
2019-05-29T00:10:13.228Z,0
2019-05-29T00:11:13.223Z,0
2019-05-29T00:12:18.055Z,0
2019-05-29T00:13:13.333Z,0
2019-05-29T00:14:22.490Z,0
2019-05-29T00:15:13.422Z,0
2019-05-29T00:16:13.357Z,0
2019-05-29T00:17:13.422Z,0
2019-05-29T00:18:13.377Z,0
2019-05-29T00:19:13.407Z,0
2019-05-29T00:20:13.437Z,0
2019-05-29T00:21:13.432Z,0
2019-05-29T00:22:13.416Z,0
2019-05-29T00:23:13.445Z,0
2019-05-29T00:24:19.971Z,0
2019-05-29T00:25:13.465Z,0
2019-05-29T00:26:13.488Z,0
2019-05-29T00:27:14.304Z,0
2019-05-29T00:28:13.686Z,0
2019-05-29T00:29:12.692Z,0
2019-05-29T00:30:13.825Z,0
2019-05-29T00:31:12.803Z,0
2019-05-29T00:32:13.966Z,0
2019-05-29T00:33:13.019Z,0
2019-05-29T00:34:14.112Z,0
2019-05-29T00:35:13.153Z,0
2019-05-29T00:36:13.295Z,0
2019-05-29T00:37:13.444Z,0
2019-05-29T00:38:13.562Z,0
2019-05-29T00:39:13.657Z,0
2019-05-29T00:40:13.826Z,0
2019-05-29T00:41:13.941Z,0
2019-05-29T00:42:14.694Z,0
2019-05-29T00:43:14.192Z,0
2019-05-29T00:44:14.302Z,0
2019-05-29T00:45:14.382Z,0
2019-05-29T00:46:14.494Z,0
2019-05-29T00:47:14.611Z,0
2019-05-29T00:48:14.756Z,0
2019-05-29T00:49:14.874Z,0
2019-05-29T00:50:15.030Z,0
2019-05-29T00:51:16.094Z,0
2019-05-29T00:52:15.158Z,0
2019-05-29T00:53:15.252Z,0
2019-05-29T00:54:15.410Z,0
2019-05-29T00:55:15.587Z,0
2019-05-29T00:56:15.676Z,0
2019-05-29T00:57:15.848Z,0
2019-05-29T00:58:15.965Z,0
2019-05-29T00:59:16.222Z,0
2019-05-29T01:00:16.290Z,0
2019-05-29T01:01:16.346Z,0
2019-05-29T01:02:16.527Z,0
2019-05-29T01:03:16.653Z,0
2019-05-29T01:04:16.744Z,0
2019-05-29T01:05:16.954Z,0
2019-05-29T01:06:17.046Z,0
2019-05-29T01:07:17.211Z,0
2019-05-29T01:08:17.324Z,0
2019-05-29T01:09:17.486Z,0
2019-05-29T01:10:17.654Z,0
2019-05-29T01:11:17.808Z,0
2019-05-29T01:12:17.951Z,0
2019-05-29T01:13:18.090Z,0
2019-05-29T01:14:18.243Z,0
2019-05-29T01:15:18.394Z,0
2019-05-29T01:16:18.540Z,0
2019-05-29T01:17:18.631Z,0
2019-05-29T01:18:18.827Z,0
2019-05-29T01:19:19.018Z,0
2019-05-29T01:20:18.889Z,0
2019-05-29T01:21:19.035Z,0
2019-05-29T01:22:19.162Z,0
2019-05-29T01:23:19.276Z,0
2019-05-29T01:24:19.426Z,0
2019-05-29T01:25:19.541Z,0
2019-05-29T01:26:19.662Z,0
2019-05-29T01:27:19.755Z,0
2019-05-29T01:28:19.888Z,0
2019-05-29T01:29:20.025Z,0
2019-05-29T01:30:20.180Z,0
2019-05-29T01:31:20.325Z,0
2019-05-29T01:32:20.463Z,0
2019-05-29T01:33:22.104Z,0
2019-05-29T01:34:20.813Z,0
2019-05-29T01:35:20.850Z,0
2019-05-29T01:36:21.025Z,0
2019-05-29T01:37:21.167Z,0
2019-05-29T01:38:22.274Z,0
2019-05-29T01:39:22.335Z,0
2019-05-29T01:40:26.399Z,0
2019-05-29T01:41:22.352Z,0
2019-05-29T01:42:22.376Z,0
2019-05-29T01:43:22.394Z,0
2019-05-29T01:44:22.437Z,0
2019-05-29T01:45:22.477Z,0
2019-05-29T01:46:22.503Z,0
2019-05-29T01:47:22.533Z,0
2019-05-29T01:48:22.529Z,0
2019-05-29T01:49:22.575Z,0
2019-05-29T01:50:22.567Z,0
2019-05-29T01:51:22.584Z,0
2019-05-29T01:52:22.629Z,0
2019-05-29T01:53:22.649Z,0
2019-05-29T01:54:22.645Z,0
2019-05-29T01:55:22.700Z,0
2019-05-29T01:56:22.743Z,0
2019-05-29T01:57:22.726Z,0
2019-05-29T01:58:22.766Z,0
2019-05-29T01:59:22.770Z,0
2019-05-29T02:00:22.794Z,0
2019-05-29T02:01:22.807Z,0
2019-05-29T02:02:22.788Z,0
2019-05-29T02:03:22.794Z,0
2019-05-29T02:04:22.967Z,0
2019-05-29T02:05:22.896Z,0
2019-05-29T02:06:22.906Z,0
2019-05-29T02:07:22.894Z,0
2019-05-29T02:08:23.075Z,0
2019-05-29T02:09:23.082Z,0
2019-05-29T02:10:23.155Z,0
2019-05-29T02:11:22.204Z,0
2019-05-29T02:12:23.332Z,0
2019-05-29T02:13:22.369Z,0
2019-05-29T02:14:23.519Z,0
2019-05-29T02:15:29.851Z,0
2019-05-29T02:16:23.675Z,0
2019-05-29T02:17:22.775Z,0
2019-05-29T02:18:23.866Z,0
2019-05-29T02:19:22.865Z,0
2019-05-29T02:20:23.983Z,0
2019-05-29T02:21:23.056Z,0
2019-05-29T02:22:23.992Z,0
2019-05-29T02:23:23.025Z,0
2019-05-29T02:24:24.168Z,0
2019-05-29T02:25:23.199Z,0
2019-05-29T02:26:23.345Z,0
2019-05-29T02:27:24.457Z,0
2019-05-29T02:28:23.466Z,0
2019-05-29T02:29:23.714Z,0
2019-05-29T02:30:25.994Z,0
2019-05-29T02:31:24.598Z,0
2019-05-29T02:32:24.132Z,0
2019-05-29T02:33:24.573Z,0
2019-05-29T02:34:25.416Z,0
2019-05-29T02:35:25.134Z,0
2019-05-29T02:36:25.093Z,0
2019-05-29T02:37:24.853Z,0
2019-05-29T02:38:25.377Z,0
2019-05-29T02:39:25.569Z,0
2019-05-29T02:40:26.306Z,0
2019-05-29T02:41:26.138Z,0
2019-05-29T02:42:25.619Z,0
2019-05-29T02:43:25.896Z,0
2019-05-29T02:44:25.845Z,0
2019-05-29T02:45:45.561Z,0
2019-05-29T02:46:26.354Z,0
2019-05-29T02:47:26.466Z,0
2019-05-29T02:48:27.942Z,0
2019-05-29T02:49:26.435Z,0
2019-05-29T02:50:27.155Z,0
2019-05-29T02:51:26.906Z,0
2019-05-29T02:52:26.852Z,0
2019-05-29T02:53:26.998Z,0
2019-05-29T02:54:27.622Z,0
2019-05-29T02:55:27.386Z,0
2019-05-29T02:56:27.403Z,0
2019-05-29T02:57:27.477Z,0
2019-05-29T02:58:28.140Z,0
2019-05-29T02:59:28.093Z,0
2019-05-29T03:00:27.919Z,0
2019-05-29T03:01:28.207Z,0
2019-05-29T03:02:28.426Z,0
2019-05-29T03:03:29.899Z,0
2019-05-29T03:04:28.585Z,0
2019-05-29T03:05:28.550Z,0
2019-05-29T03:06:28.796Z,0
2019-05-29T03:07:29.046Z,0
2019-05-29T03:08:29.918Z,0
2019-05-29T03:09:29.163Z,0
2019-05-29T03:10:29.388Z,0
2019-05-29T03:11:29.623Z,0
2019-05-29T03:12:29.926Z,0
2019-05-29T03:13:30.290Z,0
2019-05-29T03:14:30.100Z,0
2019-05-29T03:15:30.202Z,0
2019-05-29T03:16:30.897Z,0
2019-05-29T03:17:30.353Z,0
2019-05-29T03:18:30.778Z,0
2019-05-29T03:19:30.808Z,0
2019-05-29T03:20:30.797Z,0
2019-05-29T03:21:31.031Z,0
2019-05-29T03:22:31.272Z,0
2019-05-29T03:23:31.498Z,0
2019-05-29T03:24:31.231Z,0
2019-05-29T03:25:31.169Z,0
2019-05-29T03:26:33.266Z,0
2019-05-29T03:27:32.524Z,0
2019-05-29T03:28:32.823Z,0
2019-05-29T03:29:32.494Z,0
2019-05-29T03:30:38.460Z,0
2019-05-29T03:31:39.235Z,0
2019-05-29T03:32:38.721Z,0
2019-05-29T03:33:40.436Z,0
2019-05-29T03:34:39.007Z,0
2019-05-29T03:35:39.546Z,0
2019-05-29T03:36:39.212Z,0
2019-05-29T03:37:32.914Z,0
2019-05-29T03:38:33.169Z,0
2019-05-29T03:39:33.005Z,0
2019-05-29T03:40:33.515Z,0
2019-05-29T03:41:33.210Z,0
2019-05-29T03:42:33.073Z,0
2019-05-29T03:43:33.512Z,0
2019-05-29T03:44:33.590Z,0
2019-05-29T03:45:33.885Z,0
2019-05-29T03:46:40.594Z,0
2019-05-29T03:47:33.535Z,0
2019-05-29T03:48:32.727Z,0
2019-05-29T03:49:33.661Z,0
2019-05-29T03:50:33.260Z,0
2019-05-29T03:51:34.963Z,0
2019-05-29T03:52:33.019Z,0
2019-05-29T03:53:34.191Z,0
2019-05-29T03:54:33.683Z,0
2019-05-29T03:55:34.335Z,0
2019-05-29T03:56:33.024Z,0
2019-05-29T03:57:34.315Z,0
2019-05-29T03:58:33.499Z,0
2019-05-29T03:59:33.358Z,0
2019-05-29T04:00:41.106Z,0
2019-05-29T04:01:33.728Z,0
2019-05-29T04:02:33.657Z,0
2019-05-29T04:03:33.818Z,0
2019-05-29T04:04:34.011Z,0
2019-05-29T04:05:33.859Z,0
2019-05-29T04:06:33.848Z,0
2019-05-29T04:07:34.029Z,0
2019-05-29T04:08:34.107Z,0
2019-05-29T04:09:33.810Z,0
2019-05-29T04:10:35.361Z,0
2019-05-29T04:11:34.024Z,0
2019-05-29T04:12:33.994Z,0
2019-05-29T04:13:34.550Z,0
2019-05-29T04:14:34.022Z,0
2019-05-29T04:15:34.380Z,0
2019-05-29T04:16:51.996Z,0
2019-05-29T04:17:34.051Z,0
2019-05-29T04:18:34.439Z,0
2019-05-29T04:19:34.767Z,0
2019-05-29T04:20:34.303Z,0
2019-05-29T04:21:34.601Z,0
2019-05-29T04:22:34.772Z,0
2019-05-29T04:23:34.569Z,0
2019-05-29T04:24:34.479Z,0
2019-05-29T04:25:38.038Z,0
2019-05-29T04:26:34.565Z,0
2019-05-29T04:27:34.684Z,0
2019-05-29T04:28:35.154Z,0
2019-05-29T04:29:34.652Z,0
2019-05-29T04:30:34.864Z,0
2019-05-29T04:31:34.893Z,0
2019-05-29T04:32:34.847Z,0
2019-05-29T04:33:35.248Z,0
2019-05-29T04:34:36.226Z,0
2019-05-29T04:35:35.090Z,0
2019-05-29T04:36:35.231Z,0
2019-05-29T04:37:35.099Z,0
2019-05-29T04:38:36.048Z,0
2019-05-29T04:39:35.278Z,0
2019-05-29T04:40:35.588Z,0
2019-05-29T04:41:35.308Z,0
2019-05-29T04:42:35.697Z,0
2019-05-29T04:43:35.984Z,0
2019-05-29T04:44:36.168Z,0
2019-05-29T04:45:35.914Z,0
2019-05-29T04:46:36.766Z,0
2019-05-29T04:47:35.689Z,0
2019-05-29T04:48:36.088Z,0
2019-05-29T04:49:36.086Z,0
2019-05-29T04:50:36.377Z,0
2019-05-29T04:51:35.816Z,0
2019-05-29T04:52:35.881Z,0
2019-05-29T04:53:35.864Z,0
2019-05-29T04:54:35.889Z,0
2019-05-29T04:55:35.818Z,0
2019-05-29T04:56:35.827Z,0
2019-05-29T04:57:35.968Z,0
2019-05-29T04:58:35.893Z,0
2019-05-29T04:59:35.940Z,0
2019-05-29T05:00:36.014Z,0
2019-05-29T05:01:36.019Z,0
2019-05-29T05:02:36.074Z,0
2019-05-29T05:03:36.083Z,0
2019-05-29T05:04:36.147Z,0
2019-05-29T05:05:36.248Z,0
2019-05-29T05:06:36.250Z,0
2019-05-29T05:07:36.282Z,0
2019-05-29T05:08:36.328Z,0
2019-05-29T05:09:36.389Z,0
2019-05-29T05:10:36.468Z,0
2019-05-29T05:11:36.482Z,0
2019-05-29T05:12:36.566Z,0
2019-05-29T05:13:36.585Z,0
2019-05-29T05:14:36.628Z,0
2019-05-29T05:15:36.707Z,0
2019-05-29T05:16:36.721Z,0
2019-05-29T05:17:36.792Z,0
2019-05-29T05:18:36.835Z,0
2019-05-29T05:19:36.875Z,0
2019-05-29T05:20:36.949Z,0
2019-05-29T05:21:36.962Z,0
2019-05-29T05:22:37.017Z,0
2019-05-29T05:23:37.050Z,0
2019-05-29T05:24:40.375Z,0
2019-05-29T05:25:37.171Z,0
2019-05-29T05:26:37.224Z,0
2019-05-29T05:27:37.266Z,0
2019-05-29T05:28:37.319Z,0
2019-05-29T05:29:37.315Z,0
2019-05-29T05:30:37.381Z,0
2019-05-29T05:31:37.435Z,0
2019-05-29T05:32:37.553Z,0
2019-05-29T05:33:37.542Z,0
2019-05-29T05:34:37.578Z,0
2019-05-29T05:35:37.647Z,0
2019-05-29T05:36:37.684Z,0
2019-05-29T05:37:37.705Z,0
2019-05-29T05:38:37.720Z,0
2019-05-29T05:39:37.778Z,0
2019-05-29T05:40:40.063Z,0
2019-05-29T05:41:37.856Z,0
2019-05-29T05:42:37.872Z,0
2019-05-29T05:43:37.903Z,0
2019-05-29T05:44:37.948Z,0
2019-05-29T05:45:37.998Z,0
2019-05-29T05:46:38.053Z,0
2019-05-29T05:47:49.405Z,0
2019-05-29T05:48:38.154Z,0
2019-05-29T05:49:38.249Z,0
2019-05-29T05:50:38.261Z,0
2019-05-29T05:51:41.057Z,0
2019-05-29T05:52:38.368Z,0
2019-05-29T05:53:38.397Z,0
2019-05-29T05:54:38.429Z,0
2019-05-29T05:55:38.503Z,0
2019-05-29T05:56:38.527Z,0
2019-05-29T05:57:38.572Z,0
2019-05-29T05:58:38.655Z,0
2019-05-29T05:59:38.682Z,0
2019-05-29T06:00:38.690Z,0
2019-05-29T06:01:38.733Z,0
2019-05-29T06:02:38.793Z,0
2019-05-29T06:03:38.961Z,0
2019-05-29T06:04:38.847Z,0
2019-05-29T06:05:38.986Z,0
2019-05-29T06:06:38.996Z,0
2019-05-29T06:07:39.056Z,0
2019-05-29T06:08:39.096Z,0
2019-05-29T06:09:39.136Z,0
2019-05-29T06:10:39.159Z,0
2019-05-29T06:11:39.233Z,0
2019-05-29T06:12:39.315Z,0
2019-05-29T06:13:39.346Z,0
2019-05-29T06:14:39.453Z,0
2019-05-29T06:15:39.463Z,0
2019-05-29T06:16:39.525Z,0
2019-05-29T06:17:39.543Z,0
2019-05-29T06:18:39.569Z,0
2019-05-29T06:19:39.677Z,0
2019-05-29T06:20:39.692Z,0
2019-05-29T06:21:39.729Z,0
2019-05-29T06:22:39.825Z,0
2019-05-29T06:23:39.882Z,0
2019-05-29T06:24:39.857Z,0
2019-05-29T06:25:40.622Z,0
2019-05-29T06:26:39.910Z,0
2019-05-29T06:27:40.034Z,0
2019-05-29T06:28:40.107Z,0
2019-05-29T06:29:40.143Z,0
2019-05-29T06:30:41.173Z,0
2019-05-29T06:31:40.289Z,0
2019-05-29T06:32:40.283Z,0
2019-05-29T06:33:40.345Z,0
2019-05-29T06:34:40.410Z,0
2019-05-29T06:35:40.442Z,0
2019-05-29T06:36:40.450Z,0
2019-05-29T06:37:40.511Z,0
2019-05-29T06:38:40.834Z,0
2019-05-29T06:39:40.617Z,0
2019-05-29T06:40:40.691Z,0
2019-05-29T06:41:40.706Z,0
2019-05-29T06:42:40.758Z,0
2019-05-29T06:43:40.789Z,0
2019-05-29T06:44:41.866Z,0
2019-05-29T06:45:40.877Z,0
2019-05-29T06:46:41.008Z,0
2019-05-29T06:47:41.262Z,0
2019-05-29T06:48:49.983Z,0
2019-05-29T06:49:41.070Z,0
2019-05-29T06:50:42.116Z,0
2019-05-29T06:51:42.233Z,0
2019-05-29T06:52:42.373Z,0
2019-05-29T06:53:42.481Z,0
2019-05-29T06:54:42.733Z,0
2019-05-29T06:55:42.693Z,0
2019-05-29T06:56:42.744Z,0
2019-05-29T06:57:43.046Z,0
2019-05-29T06:58:42.938Z,0
2019-05-29T06:59:43.247Z,0
2019-05-29T07:00:43.603Z,0
2019-05-29T07:01:42.255Z,0
2019-05-29T07:02:43.473Z,0
2019-05-29T07:03:42.499Z,0
2019-05-29T07:04:43.491Z,0
2019-05-29T07:05:46.269Z,0
2019-05-29T07:06:43.675Z,0
2019-05-29T07:07:43.181Z,0
2019-05-29T07:08:46.282Z,0
2019-05-29T07:09:43.995Z,0
2019-05-29T07:10:43.165Z,0
2019-05-29T07:11:44.279Z,0
2019-05-29T07:12:43.227Z,0
2019-05-29T07:13:45.716Z,0
2019-05-29T07:14:43.421Z,0
2019-05-29T07:15:43.945Z,0
2019-05-29T07:16:52.096Z,0
2019-05-29T07:17:43.380Z,0
2019-05-29T07:19:18.080Z,0
2019-05-29T07:19:53.781Z,0
2019-05-29T07:20:43.777Z,0
2019-05-29T07:21:43.683Z,0
2019-05-29T07:22:43.703Z,0
2019-05-29T07:23:45.089Z,0
2019-05-29T07:24:43.835Z,0
2019-05-29T07:25:44.216Z,0
2019-05-29T07:26:44.140Z,0
2019-05-29T07:27:43.862Z,0
2019-05-29T07:29:01.867Z,0
2019-05-29T07:29:43.933Z,0
2019-05-29T07:30:49.297Z,0
2019-05-29T07:31:44.018Z,0
2019-05-29T07:32:49.949Z,0
2019-05-29T07:33:44.152Z,0
2019-05-29T07:34:56.582Z,0
2019-05-29T07:35:44.589Z,0
2019-05-29T07:36:44.511Z,0
2019-05-29T07:37:44.551Z,0
2019-05-29T07:38:50.284Z,0
2019-05-29T07:39:44.571Z,0
2019-05-29T07:40:45.497Z,0
2019-05-29T07:41:44.668Z,0
2019-05-29T07:42:50.968Z,0
2019-05-29T07:43:44.842Z,0
2019-05-29T07:44:44.847Z,0
2019-05-29T07:45:44.916Z,0
2019-05-29T07:46:45.593Z,0
2019-05-29T07:47:45.197Z,0
2019-05-29T07:48:46.187Z,0
2019-05-29T07:49:46.931Z,0
2019-05-29T07:50:45.163Z,0
2019-05-29T07:51:45.443Z,0
2019-05-29T07:52:45.807Z,0
2019-05-29T07:53:45.343Z,0
2019-05-29T07:54:46.540Z,0
2019-05-29T07:55:45.620Z,0
2019-05-29T07:56:45.511Z,0
2019-05-29T07:57:45.597Z,0
2019-05-29T07:58:56.114Z,0
2019-05-29T07:59:45.680Z,0
2019-05-29T08:01:04.656Z,0
2019-05-29T08:01:46.075Z,0
2019-05-29T08:02:46.126Z,0
2019-05-29T08:03:46.007Z,0
2019-05-29T08:04:46.004Z,0
2019-05-29T08:05:49.129Z,0
2019-05-29T08:06:51.026Z,0
2019-05-29T08:07:46.197Z,0
2019-05-29T08:08:46.240Z,0
2019-05-29T08:09:46.512Z,0
2019-05-29T08:10:46.411Z,0
2019-05-29T08:11:46.468Z,0
2019-05-29T08:12:51.056Z,0
2019-05-29T08:13:46.585Z,0
2019-05-29T08:14:46.668Z,0
2019-05-29T08:15:57.359Z,0
2019-05-29T08:16:46.785Z,0
2019-05-29T08:17:46.856Z,0
2019-05-29T08:18:49.366Z,0
2019-05-29T08:20:02.531Z,0
2019-05-29T08:20:47.014Z,0
2019-05-29T08:21:47.217Z,0
2019-05-29T08:22:47.241Z,0
2019-05-29T08:23:47.321Z,0
2019-05-29T08:24:48.020Z,0
2019-05-29T08:25:48.399Z,0
2019-05-29T08:26:47.516Z,0
2019-05-29T08:27:47.574Z,0
2019-05-29T08:28:47.614Z,0
2019-05-29T08:29:47.697Z,0
2019-05-29T08:30:52.427Z,0
2019-05-29T08:31:47.728Z,0
2019-05-29T08:32:47.891Z,0
2019-05-29T08:33:47.783Z,0
2019-05-29T08:34:47.868Z,0
2019-05-29T08:35:55.512Z,0
2019-05-29T08:36:59.671Z,0
2019-05-29T08:37:47.983Z,0
2019-05-29T08:38:48.135Z,0
2019-05-29T08:39:48.354Z,0
2019-05-29T08:40:48.358Z,0
2019-05-29T08:42:16.945Z,0
2019-05-29T08:42:48.288Z,0
2019-05-29T08:43:49.380Z,0
2019-05-29T08:44:48.424Z,0
2019-05-29T08:45:48.448Z,0
2019-05-29T08:47:04.044Z,0
2019-05-29T08:47:48.624Z,0
2019-05-29T08:48:48.730Z,0
2019-05-29T08:49:51.414Z,0
2019-05-29T08:50:48.812Z,0
2019-05-29T08:51:48.847Z,0
2019-05-29T08:52:48.925Z,0
2019-05-29T08:53:49.224Z,5.625
2019-05-29T08:54:49.094Z,0
2019-05-29T08:55:49.516Z,0
2019-05-29T08:56:49.204Z,0
2019-05-29T08:57:49.238Z,0
2019-05-29T08:58:49.376Z,0
2019-05-29T08:59:49.528Z,0
2019-05-29T09:00:52.224Z,0
2019-05-29T09:01:51.140Z,0
2019-05-29T09:02:49.860Z,0
2019-05-29T09:03:49.651Z,0
2019-05-29T09:04:50.111Z,0
2019-05-29T09:06:04.748Z,0
2019-05-29T09:06:49.916Z,0
2019-05-29T09:07:50.323Z,0
2019-05-29T09:08:50.419Z,0
2019-05-29T09:09:49.929Z,0
2019-05-29T09:10:50.186Z,0
2019-05-29T09:11:50.527Z,0
2019-05-29T09:13:01.634Z,5.625
2019-05-29T09:17:19.034Z,196.875
2019-05-29T09:18:20.289Z,196.875
2019-05-29T09:19:19.353Z,196.875
2019-05-29T09:20:31.857Z,196.875
2019-05-29T09:21:19.529Z,196.875
2019-05-29T09:22:19.558Z,196.875
2019-05-29T09:23:19.611Z,196.875
2019-05-29T09:24:19.795Z,196.875
2019-05-29T09:25:19.907Z,196.875
2019-05-29T09:26:22.811Z,196.875
2019-05-29T09:27:20.069Z,196.875
2019-05-29T09:28:20.782Z,196.875
2019-05-29T09:29:22.040Z,196.875
2019-05-29T09:30:20.560Z,202.5
2019-05-29T09:31:20.722Z,196.875
2019-05-29T09:32:40.647Z,196.875
2019-05-29T09:33:21.793Z,202.5
2019-05-29T09:34:20.977Z,202.5
2019-05-29T09:35:21.881Z,202.5
2019-05-29T09:36:21.333Z,202.5
2019-05-29T09:37:21.396Z,202.5
2019-05-29T09:38:21.739Z,202.5
2019-05-29T09:39:21.594Z,202.5
2019-05-29T09:40:21.762Z,202.5
2019-05-29T09:41:22.155Z,202.5
2019-05-29T09:42:22.267Z,202.5
2019-05-29T09:43:26.845Z,202.5
2019-05-29T09:44:33.753Z,202.5
2019-05-29T09:45:22.308Z,202.5
2019-05-29T09:46:22.458Z,202.5
2019-05-29T09:47:22.645Z,202.5
2019-05-29T09:48:25.145Z,202.5
2019-05-29T09:49:22.833Z,208.125
2019-05-29T09:50:23.763Z,208.125
2019-05-29T09:51:58.880Z,219.375
2019-05-29T09:53:00.728Z,219.375
2019-05-29T09:53:59.853Z,219.375
2019-05-29T09:54:59.200Z,219.375
2019-05-29T09:55:59.460Z,219.375
2019-05-29T09:56:59.897Z,219.375
2019-05-29T09:57:59.460Z,219.375
2019-05-29T09:59:00.236Z,219.375
2019-05-29T10:00:00.206Z,219.375
2019-05-29T10:01:16.952Z,219.375
2019-05-29T10:02:03.210Z,219.375
2019-05-29T10:03:00.196Z,225
2019-05-29T10:04:01.843Z,225
2019-05-29T10:05:00.967Z,225
2019-05-29T10:06:00.281Z,225
2019-05-29T10:07:00.490Z,230.625
2019-05-29T10:08:00.378Z,230.625
2019-05-29T10:09:00.478Z,230.625
2019-05-29T10:10:00.996Z,230.625
2019-05-29T10:11:05.783Z,230.625
2019-05-29T10:12:03.927Z,230.625
2019-05-29T10:13:01.270Z,225
2019-05-29T10:14:01.134Z,225
2019-05-29T10:15:01.238Z,225
2019-05-29T10:16:01.502Z,225
2019-05-29T10:17:05.293Z,225
2019-05-29T10:18:01.466Z,225
2019-05-29T10:19:01.876Z,225
2019-05-29T10:20:01.771Z,230.625
2019-05-29T10:21:01.934Z,230.625
2019-05-29T10:22:02.505Z,230.625
2019-05-29T10:23:02.013Z,230.625
2019-05-29T10:24:02.584Z,230.625
2019-05-29T10:25:02.435Z,230.625
2019-05-29T10:26:03.342Z,230.625
2019-05-29T10:27:03.413Z,230.625
2019-05-29T10:29:51.652Z,0
2019-05-29T10:30:48.759Z,0
2019-05-29T10:31:49.636Z,0
2019-05-29T10:32:48.886Z,5.625
2019-05-29T10:33:49.023Z,5.625
2019-05-29T10:34:49.253Z,5.625
2019-05-29T10:35:51.501Z,5.625
2019-05-29T10:36:51.667Z,5.625
2019-05-29T10:37:49.472Z,5.625
2019-05-29T10:38:49.520Z,5.625
2019-05-29T10:39:49.601Z,5.625
2019-05-29T10:41:00.003Z,5.625
2019-05-29T10:41:49.761Z,5.625
2019-05-29T10:42:50.001Z,5.625
2019-05-29T10:43:49.944Z,5.625
2019-05-29T10:44:50.066Z,5.625
2019-05-29T10:45:50.337Z,5.625
2019-05-29T10:46:52.331Z,5.625
2019-05-29T10:47:50.860Z,5.625
2019-05-29T10:48:52.727Z,5.625
2019-05-29T10:49:50.583Z,5.625
2019-05-29T10:50:52.401Z,5.625
2019-05-29T10:52:05.310Z,5.625
2019-05-29T10:52:50.991Z,5.625
2019-05-29T10:53:52.997Z,5.625
2019-05-29T10:54:51.223Z,5.625
2019-05-29T10:55:51.404Z,5.625
2019-05-29T10:56:51.401Z,5.625
2019-05-29T10:57:51.531Z,5.625
2019-05-29T10:58:56.035Z,5.625
2019-05-29T10:59:51.722Z,5.625
2019-05-29T11:00:51.943Z,5.625
2019-05-29T11:01:52.432Z,5.625
2019-05-29T11:02:53.407Z,5.625
2019-05-29T11:03:52.596Z,5.625
2019-05-29T11:04:55.359Z,5.625
2019-05-29T11:05:52.473Z,5.625
2019-05-29T11:06:53.282Z,5.625
2019-05-29T11:07:52.707Z,5.625
2019-05-29T11:08:52.841Z,5.625
2019-05-29T11:09:52.973Z,5.625
2019-05-29T11:10:53.068Z,5.625
2019-05-29T11:11:53.588Z,5.625
2019-05-29T11:12:53.361Z,5.625
2019-05-29T11:13:53.838Z,5.625
2019-05-29T11:14:53.542Z,5.625
2019-05-29T11:15:53.673Z,5.625
2019-05-29T11:16:53.836Z,5.625
2019-05-29T11:17:54.050Z,5.625
2019-05-29T11:18:54.122Z,5.625
2019-05-29T11:19:54.245Z,5.625
2019-05-29T11:20:54.337Z,5.625
2019-05-29T11:21:58.628Z,5.625
2019-05-29T11:22:54.607Z,5.625
2019-05-29T11:23:54.726Z,5.625
2019-05-29T11:24:54.883Z,5.625
2019-05-29T11:25:54.982Z,5.625
2019-05-29T11:26:55.362Z,5.625
2019-05-29T11:27:55.337Z,5.625
2019-05-29T11:28:55.301Z,5.625
2019-05-29T11:29:55.592Z,5.625
2019-05-29T11:30:55.886Z,5.625
2019-05-29T11:31:55.629Z,5.625
2019-05-29T11:32:57.195Z,5.625
2019-05-29T11:33:55.783Z,5.625
2019-05-29T11:34:56.223Z,5.625
2019-05-29T11:36:06.922Z,5.625
2019-05-29T11:36:57.183Z,5.625
2019-05-29T11:37:57.394Z,5.625
2019-05-29T11:39:01.344Z,5.625
2019-05-29T11:39:57.786Z,5.625
2019-05-29T11:41:19.249Z,5.625
2019-05-29T11:41:57.761Z,5.625
2019-05-29T11:42:57.753Z,5.625
2019-05-29T11:43:57.749Z,5.625
2019-05-29T11:44:57.900Z,5.625
2019-05-29T11:45:58.169Z,5.625
2019-05-29T11:46:56.872Z,5.625
2019-05-29T11:47:59.487Z,5.625
2019-05-29T11:48:58.017Z,5.625
2019-05-29T11:50:02.804Z,5.625
2019-05-29T11:50:57.183Z,5.625
2019-05-29T11:52:18.379Z,5.625
2019-05-29T11:52:57.375Z,5.625
2019-05-29T11:53:58.388Z,5.625
2019-05-29T11:54:59.888Z,5.625
2019-05-29T11:55:58.548Z,5.625
2019-05-29T11:56:57.786Z,5.625
2019-05-29T11:57:58.747Z,5.625
2019-05-29T11:58:57.822Z,5.625
2019-05-29T12:00:01.565Z,5.625
2019-05-29T12:00:58.081Z,5.625
2019-05-29T12:01:59.235Z,5.625
2019-05-29T12:02:58.273Z,5.625
2019-05-29T12:04:17.907Z,5.625
2019-05-29T12:05:00.666Z,5.625
2019-05-29T12:05:58.201Z,5.625
2019-05-29T12:06:58.238Z,5.625
2019-05-29T12:07:58.267Z,5.625
2019-05-29T12:08:58.505Z,5.625
2019-05-29T12:09:58.323Z,5.625
2019-05-29T12:10:58.332Z,5.625
2019-05-29T12:11:58.545Z,5.625
2019-05-29T12:12:58.367Z,5.625
2019-05-29T12:13:58.563Z,5.625
2019-05-29T12:15:07.636Z,11.25
2019-05-29T12:15:58.608Z,11.25
2019-05-29T12:16:58.776Z,11.25
2019-05-29T12:18:19.769Z,5.625
2019-05-29T12:18:58.733Z,5.625
2019-05-29T12:19:59.744Z,5.625
2019-05-29T12:20:59.698Z,5.625
2019-05-29T12:21:59.151Z,5.625
2019-05-29T12:23:18.158Z,5.625
2019-05-29T12:23:59.153Z,5.625
2019-05-29T12:24:59.347Z,5.625
2019-05-29T12:26:15.830Z,5.625
2019-05-29T12:26:59.399Z,5.625
2019-05-29T12:27:59.724Z,5.625
2019-05-29T12:29:07.061Z,5.625
2019-05-29T12:29:59.694Z,5.625
2019-05-29T12:31:00.033Z,11.25
2019-05-29T12:32:00.012Z,5.625
2019-05-29T12:33:00.032Z,5.625
2019-05-29T12:34:06.479Z,5.625
2019-05-29T12:34:59.988Z,5.625
2019-05-29T12:35:59.967Z,5.625
2019-05-29T12:37:00.381Z,11.25
2019-05-29T12:38:00.197Z,11.25
2019-05-29T12:39:00.185Z,11.25
2019-05-29T12:40:00.334Z,11.25
2019-05-29T12:41:00.324Z,11.25
2019-05-29T12:42:00.418Z,11.25
2019-05-29T12:43:00.573Z,11.25
2019-05-29T12:44:00.352Z,11.25
2019-05-29T12:45:00.456Z,11.25
2019-05-29T12:46:00.489Z,11.25
2019-05-29T12:47:00.454Z,11.25
2019-05-29T12:48:00.658Z,11.25
2019-05-29T12:49:00.446Z,11.25
2019-05-29T12:50:00.858Z,11.25
2019-05-29T12:51:00.651Z,5.625
2019-05-29T12:52:00.488Z,5.625
2019-05-29T12:53:00.469Z,5.625
2019-05-29T12:54:00.874Z,5.625
2019-05-29T12:55:00.923Z,5.625
2019-05-29T12:56:01.096Z,5.625
2019-05-29T12:57:00.954Z,5.625
2019-05-29T12:58:00.980Z,5.625
2019-05-29T12:59:01.166Z,5.625
2019-05-29T13:00:01.415Z,5.625
2019-05-29T13:01:01.159Z,5.625
2019-05-29T13:02:01.147Z,5.625
2019-05-29T13:03:01.396Z,11.25
2019-05-29T13:04:01.152Z,11.25
2019-05-29T13:05:08.209Z,11.25
2019-05-29T13:06:01.278Z,11.25
2019-05-29T13:07:01.343Z,11.25
2019-05-29T13:08:01.414Z,11.25
2019-05-29T13:09:01.359Z,11.25
2019-05-29T13:10:01.358Z,11.25
2019-05-29T13:11:01.335Z,11.25
2019-05-29T13:12:01.374Z,11.25
2019-05-29T13:13:06.511Z,11.25
2019-05-29T13:14:01.502Z,11.25
2019-05-29T13:15:01.780Z,11.25
2019-05-29T13:16:01.593Z,11.25
2019-05-29T13:17:01.625Z,11.25
2019-05-29T13:18:06.164Z,11.25
2019-05-29T13:19:01.914Z,11.25
2019-05-29T13:20:13.528Z,11.25
2019-05-29T13:21:01.913Z,16.875
2019-05-29T13:22:02.171Z,11.25
2019-05-29T13:23:03.528Z,11.25
2019-05-29T13:24:05.267Z,16.875
2019-05-29T13:25:02.295Z,16.875
2019-05-29T13:26:02.533Z,11.25
2019-05-29T13:27:02.407Z,11.25
2019-05-29T13:28:03.016Z,11.25
2019-05-29T13:29:02.578Z,16.875
2019-05-29T13:30:04.825Z,22.5
2019-05-29T13:31:02.752Z,22.5
2019-05-29T13:32:04.010Z,5.625
2019-05-29T13:33:05.157Z,5.625
2019-05-29T13:34:03.236Z,5.625
2019-05-29T13:35:02.889Z,5.625
2019-05-29T13:36:03.011Z,5.625
2019-05-29T13:37:04.505Z,5.625
2019-05-29T13:38:04.016Z,5.625
2019-05-29T13:39:03.153Z,5.625
2019-05-29T13:40:05.398Z,11.25
2019-05-29T13:41:03.164Z,16.875
2019-05-29T13:42:07.246Z,11.25
2019-05-29T13:43:10.989Z,11.25
2019-05-29T13:44:03.303Z,11.25
2019-05-29T13:45:10.926Z,106.875
2019-05-29T13:46:03.533Z,67.5
2019-05-29T13:47:04.642Z,61.875
2019-05-29T13:48:03.940Z,337.5
2019-05-29T13:49:03.713Z,725.625
2019-05-29T13:50:07.880Z,483.75
2019-05-29T13:51:04.084Z,106.875
2019-05-29T13:52:08.097Z,61.875
2019-05-29T13:53:04.135Z,90
2019-05-29T13:54:09.923Z,140.625
2019-05-29T13:55:04.399Z,112.5
2019-05-29T13:56:04.659Z,112.5
2019-05-29T13:57:05.046Z,191.25
2019-05-29T13:58:04.674Z,286.875
2019-05-29T13:59:05.222Z,196.875
2019-05-29T14:00:26.354Z,67.5
2019-05-29T14:01:05.036Z,16.875
2019-05-29T14:02:06.629Z,61.875
2019-05-29T14:03:05.362Z,56.25
2019-05-29T14:04:05.439Z,90
2019-05-29T14:05:05.406Z,84.375
2019-05-29T14:06:05.817Z,73.125
2019-05-29T14:07:05.439Z,84.375
2019-05-29T14:08:05.594Z,140.625